Time,TemperatureF,DewpointF,PressureIn,WindDirection,WindDirectionDegrees,WindSpeedMPH,WindSpeedGustMPH,Humidity,HourlyPrecipIn,Conditions,Clouds,dailyrainin,SoftwareType,DateUTC
2013-02-25 00:00:00,22.1,20.9,30.13,WNW,299,0.0,0.0,95,0.00,,,0.00,WeatherCatV1.10B1784,2013-02-25 06:00:00,
2013-02-25 00:05:00,22.0,20.8,30.13,WNW,299,0.0,0.0,95,0.00,,,0.00,WeatherCatV1.10B1784,2013-02-25 06:05:00,
2013-02-25 00:10:00,21.9,20.7,30.13,WNW,299,0.0,0.0,95,0.00,,,0.00,WeatherCatV1.10B1784,2013-02-25 06:10:00,
2013-02-25 00:15:00,21.8,20.6,30.12,WNW,299,0.0,0.0,95,0.00,,,0.00,WeatherCatV1.10B1784,2013-02-25 06:15:00,
2013-02-25 00:20:00,21.8,20.6,30.13,WNW,299,0.0,0.0,95,0.00,,,0.00,WeatherCatV1.10B1784,2013-02-25 06:20:00,
2013-02-25 00:25:00,21.7,20.2,30.13,WNW,299,0.0,0.0,94,0.00,,,0.00,WeatherCatV1.10B1784,2013-02-25 06:25:00,
2013-02-25 00:30:00,21.6,20.1,30.13,WNW,299,0.0,0.0,94,0.00,,,0.00,WeatherCatV1.10B1784,2013-02-25 06:30:00,
2013-02-25 00:35:00,21.5,20.0,30.13,WNW,299,0.0,0.0,94,0.00,,,0.00,WeatherCatV1.10B1784,2013-02-25 06:35:00,
2013-02-25 00:40:00,21.4,19.9,30.13,WNW,299,0.0,0.0,94,0.00,,,0.00,WeatherCatV1.10B1784,2013-02-25 06:40:00,
2013-02-25 00:45:00,21.2,19.7,30.13,WNW,299,0.0,0.0,94,0.00,,,0.00,WeatherCatV1.10B1784,2013-02-25 06:45:00,
2013-02-25 00:50:00,21.1,19.6,30.13,WNW,299,0.0,0.0,94,0.00,,,0.00,WeatherCatV1.10B1784,2013-02-25 06:50:00,
2013-02-25 00:55:00,21.0,19.5,30.13,WNW,299,0.0,0.0,94,0.00,,,0.00,WeatherCatV1.10B1784,2013-02-25 06:55:00,
2013-02-25 01:00:00,20.9,19.5,30.13,WNW,299,0.0,0.0,94,0.00,,,0.00,WeatherCatV1.10B1784,2013-02-25 07:00:00,
2013-02-25 01:05:00,20.8,19.4,30.13,WNW,299,0.0,0.0,94,0.00,,,0.00,WeatherCatV1.10B1784,2013-02-25 07:05:00,
2013-02-25 01:10:00,20.7,19.3,30.13,WNW,299,0.0,0.0,94,0.00,,,0.00,WeatherCatV1.10B1784,2013-02-25 07:10:00,
2013-02-25 01:15:00,20.5,19.1,30.13,WNW,299,0.0,0.0,94,0.00,,,0.00,WeatherCatV1.10B1784,2013-02-25 07:15:00,
2013-02-25 01:20:00,20.4,19.0,30.13,WNW,299,0.0,1.0,94,0.00,,,0.00,WeatherCatV1.10B1784,2013-02-25 07:20:00,
2013-02-25 01:25:00,20.3,18.9,30.13,WNW,299,0.0,0.0,94,0.00,,,0.00,WeatherCatV1.10B1784,2013-02-25 07:25:00,
2013-02-25 01:30:00,20.2,18.8,30.13,WNW,299,0.0,0.0,94,0.00,,,0.00,WeatherCatV1.10B1784,2013-02-25 07:30:00,
2013-02-25 01:35:00,20.2,18.8,30.13,WNW,299,0.0,0.0,94,0.00,,,0.00,WeatherCatV1.10B1784,2013-02-25 07:35:00,
2013-02-25 01:40:00,20.0,18.6,30.13,WNW,299,0.0,1.0,94,0.00,,,0.00,WeatherCatV1.10B1784,2013-02-25 07:40:00,
2013-02-25 01:45:00,20.0,18.6,30.13,WNW,299,0.0,0.0,94,0.00,,,0.00,WeatherCatV1.10B1784,2013-02-25 07:45:00,
2013-02-25 01:50:00,20.0,18.6,30.13,West,270,0.0,0.0,94,0.00,,,0.00,WeatherCatV1.10B1784,2013-02-25 07:50:00,
2013-02-25 01:55:00,19.9,18.5,30.13,West,270,0.0,0.0,94,0.00,,,0.00,WeatherCatV1.10B1784,2013-02-25 07:55:00,
2013-02-25 02:00:00,19.9,18.5,30.13,West,270,0.0,0.0,94,0.00,,,0.00,WeatherCatV1.10B1784,2013-02-25 08:00:00,
2013-02-25 02:05:00,19.9,18.5,30.12,West,270,0.0,0.0,94,0.00,,,0.00,WeatherCatV1.10B1784,2013-02-25 08:05:00,
2013-02-25 02:10:00,19.9,18.5,30.12,West,270,0.0,0.0,94,0.00,,,0.00,WeatherCatV1.10B1784,2013-02-25 08:10:00,
2013-02-25 02:15:00,19.8,18.4,30.12,West,270,0.0,0.0,94,0.00,,,0.00,WeatherCatV1.10B1784,2013-02-25 08:15:00,
2013-02-25 02:20:00,19.8,18.4,30.12,West,270,0.0,0.0,94,0.00,,,0.00,WeatherCatV1.10B1784,2013-02-25 08:20:00,
2013-02-25 02:25:00,19.8,18.4,30.12,West,270,0.0,0.0,94,0.00,,,0.00,WeatherCatV1.10B1784,2013-02-25 08:25:00,
2013-02-25 02:30:00,19.7,18.3,30.12,West,270,0.0,0.0,94,0.00,,,0.00,WeatherCatV1.10B1784,2013-02-25 08:30:00,
2013-02-25 02:35:00,19.7,18.3,30.12,West,270,0.0,0.0,94,0.00,,,0.00,WeatherCatV1.10B1784,2013-02-25 08:35:00,
2013-02-25 02:40:00,19.8,18.4,30.11,West,270,0.0,0.0,94,0.00,,,0.00,WeatherCatV1.10B1784,2013-02-25 08:40:00,
2013-02-25 02:45:00,19.7,18.3,30.11,West,270,0.0,0.0,94,0.00,,,0.00,WeatherCatV1.10B1784,2013-02-25 08:45:00,
2013-02-25 02:50:00,19.7,18.3,30.11,West,270,0.0,0.0,94,0.00,,,0.00,WeatherCatV1.10B1784,2013-02-25 08:50:00,
2013-02-25 02:55:00,19.7,18.3,30.11,West,270,0.0,0.0,94,0.00,,,0.00,WeatherCatV1.10B1784,2013-02-25 08:55:00,
2013-02-25 03:00:00,19.6,18.2,30.11,West,270,0.0,0.0,94,0.00,,,0.00,WeatherCatV1.10B1784,2013-02-25 09:00:00,
2013-02-25 03:05:00,19.6,18.2,30.11,West,270,0.0,0.0,94,0.00,,,0.00,WeatherCatV1.10B1784,2013-02-25 09:05:00,
2013-02-25 03:10:00,19.5,18.1,30.11,West,270,0.0,0.0,94,0.00,,,0.00,WeatherCatV1.10B1784,2013-02-25 09:10:00,
2013-02-25 03:15:00,19.4,18.0,30.11,West,270,0.0,0.0,94,0.00,,,0.00,WeatherCatV1.10B1784,2013-02-25 09:15:00,
2013-02-25 03:20:00,19.3,17.6,30.11,West,270,0.0,0.0,93,0.00,,,0.00,WeatherCatV1.10B1784,2013-02-25 09:20:00,
2013-02-25 03:25:00,19.1,17.4,30.11,West,270,0.0,0.0,93,0.00,,,0.00,WeatherCatV1.10B1784,2013-02-25 09:25:00,
2013-02-25 03:30:00,19.0,17.3,30.11,West,270,0.0,0.0,93,0.00,,,0.00,WeatherCatV1.10B1784,2013-02-25 09:30:00,
2013-02-25 03:35:00,18.8,17.1,30.11,West,270,0.0,0.0,93,0.00,,,0.00,WeatherCatV1.10B1784,2013-02-25 09:35:00,
2013-02-25 03:40:00,18.5,16.8,30.11,West,270,0.0,0.0,93,0.00,,,0.00,WeatherCatV1.10B1784,2013-02-25 09:40:00,
2013-02-25 03:45:00,18.4,16.5,30.11,West,270,0.0,0.0,92,0.00,,,0.00,WeatherCatV1.10B1784,2013-02-25 09:45:00,
2013-02-25 03:50:00,18.2,16.3,30.11,West,270,0.0,0.0,92,0.00,,,0.00,WeatherCatV1.10B1784,2013-02-25 09:50:00,
2013-02-25 03:55:00,18.0,16.1,30.11,West,270,0.0,0.0,92,0.00,,,0.00,WeatherCatV1.10B1784,2013-02-25 09:55:00,
2013-02-25 04:00:00,17.9,16.0,30.11,West,270,0.0,0.0,92,0.00,,,0.00,WeatherCatV1.10B1784,2013-02-25 10:00:00,
2013-02-25 04:05:00,17.7,15.8,30.11,West,270,0.0,0.0,92,0.00,,,0.00,WeatherCatV1.10B1784,2013-02-25 10:05:00,
2013-02-25 04:10:00,17.6,15.7,30.11,West,270,0.0,0.0,92,0.00,,,0.00,WeatherCatV1.10B1784,2013-02-25 10:10:00,
2013-02-25 04:15:00,17.3,15.4,30.11,West,270,0.0,0.0,92,0.00,,,0.00,WeatherCatV1.10B1784,2013-02-25 10:15:00,
2013-02-25 04:20:00,17.2,15.3,30.11,West,270,0.0,0.0,92,0.00,,,0.00,WeatherCatV1.10B1784,2013-02-25 10:20:00,
2013-02-25 04:25:00,17.1,15.2,30.12,West,270,0.0,0.0,92,0.00,,,0.00,WeatherCatV1.10B1784,2013-02-25 10:25:00,
2013-02-25 04:30:00,17.0,15.1,30.12,West,270,0.0,0.0,92,0.00,,,0.00,WeatherCatV1.10B1784,2013-02-25 10:30:00,
2013-02-25 04:35:00,17.2,15.5,30.13,West,270,0.0,0.0,93,0.00,,,0.00,WeatherCatV1.10B1784,2013-02-25 10:35:00,
2013-02-25 04:40:00,17.4,15.7,30.12,West,270,0.0,0.0,93,0.00,,,0.00,WeatherCatV1.10B1784,2013-02-25 10:40:00,
2013-02-25 04:45:00,17.7,16.0,30.12,West,270,0.0,0.0,93,0.00,,,0.00,WeatherCatV1.10B1784,2013-02-25 10:45:00,
2013-02-25 04:50:00,17.8,16.4,30.12,West,270,0.0,0.0,94,0.00,,,0.00,WeatherCatV1.10B1784,2013-02-25 10:50:00,
2013-02-25 04:55:00,17.9,16.5,30.13,West,270,0.0,0.0,94,0.00,,,0.00,WeatherCatV1.10B1784,2013-02-25 10:55:00,
2013-02-25 05:00:00,18.1,16.7,30.12,West,270,0.0,0.0,94,0.00,,,0.00,WeatherCatV1.10B1784,2013-02-25 11:00:00,
2013-02-25 05:05:00,18.6,17.4,30.12,West,270,0.0,0.0,95,0.00,,,0.00,WeatherCatV1.10B1784,2013-02-25 11:05:00,
2013-02-25 05:10:00,19.1,17.9,30.12,West,270,0.0,0.0,95,0.00,,,0.00,WeatherCatV1.10B1784,2013-02-25 11:10:00,
2013-02-25 05:15:00,19.5,18.3,30.12,West,270,0.0,1.0,95,0.00,,,0.00,WeatherCatV1.10B1784,2013-02-25 11:15:00,
2013-02-25 05:20:00,19.8,18.6,30.11,West,270,0.0,2.0,95,0.00,,,0.00,WeatherCatV1.10B1784,2013-02-25 11:20:00,
2013-02-25 05:25:00,19.9,18.5,30.11,West,272,0.0,0.0,94,0.00,,,0.00,WeatherCatV1.10B1784,2013-02-25 11:25:00,
2013-02-25 05:30:00,20.0,18.6,30.11,West,272,0.0,0.0,94,0.00,,,0.00,WeatherCatV1.10B1784,2013-02-25 11:30:00,
2013-02-25 05:35:00,19.9,18.5,30.11,West,272,0.0,0.0,94,0.00,,,0.00,WeatherCatV1.10B1784,2013-02-25 11:35:00,
2013-02-25 05:40:00,19.8,18.1,30.11,West,272,0.0,0.0,93,0.00,,,0.00,WeatherCatV1.10B1784,2013-02-25 11:40:00,
2013-02-25 05:45:00,19.6,17.9,30.11,West,272,0.0,0.0,93,0.00,,,0.00,WeatherCatV1.10B1784,2013-02-25 11:45:00,
2013-02-25 05:50:00,19.3,17.4,30.11,West,272,0.0,0.0,92,0.00,,,0.00,WeatherCatV1.10B1784,2013-02-25 11:50:00,
2013-02-25 05:55:00,18.9,17.0,30.11,West,272,0.0,0.0,92,0.00,,,0.00,WeatherCatV1.10B1784,2013-02-25 11:55:00,
2013-02-25 06:00:00,18.5,16.6,30.11,West,272,0.0,0.0,92,0.00,,,0.00,WeatherCatV1.10B1784,2013-02-25 12:00:00,
2013-02-25 06:05:00,18.2,16.3,30.11,West,272,0.0,0.0,92,0.00,,,0.00,WeatherCatV1.10B1784,2013-02-25 12:05:00,
2013-02-25 06:10:00,17.9,15.7,30.11,West,272,0.0,0.0,91,0.00,,,0.00,WeatherCatV1.10B1784,2013-02-25 12:10:00,
2013-02-25 06:15:00,17.7,15.8,30.10,West,272,0.0,0.0,92,0.00,,,0.00,WeatherCatV1.10B1784,2013-02-25 12:15:00,
2013-02-25 06:20:00,17.5,15.6,30.10,West,272,0.0,0.0,92,0.00,,,0.00,WeatherCatV1.10B1784,2013-02-25 12:20:00,
2013-02-25 06:25:00,17.7,16.0,30.10,West,272,1.0,1.0,93,0.00,,,0.00,WeatherCatV1.10B1784,2013-02-25 12:25:00,
2013-02-25 06:30:00,18.0,16.6,30.11,West,272,0.0,1.0,94,0.00,,,0.00,WeatherCatV1.10B1784,2013-02-25 12:30:00,
2013-02-25 06:35:00,18.4,17.0,30.11,West,272,0.0,0.0,94,0.00,,,0.00,WeatherCatV1.10B1784,2013-02-25 12:35:00,
2013-02-25 06:40:00,18.6,17.2,30.12,West,272,0.0,0.0,94,0.00,,,0.00,WeatherCatV1.10B1784,2013-02-25 12:40:00,
2013-02-25 06:43:00,18.7,17.3,30.12,West,272,0.0,0.0,94,0.00,,,0.00,WeatherCatV1.10B1784,2013-02-25 12:43:00,
2013-02-25 06:48:00,18.9,17.5,30.13,West,272,0.0,0.0,94,0.00,,,0.00,WeatherCatV1.10B1784,2013-02-25 12:48:00,
2013-02-25 06:50:00,19.0,17.6,30.13,West,272,0.0,0.0,94,0.00,,,0.00,WeatherCatV1.10B1784,2013-02-25 12:50:00,
2013-02-25 06:51:00,19.1,17.7,30.12,West,272,0.0,0.0,94,0.00,,,0.00,WeatherCatV1.10B1784,2013-02-25 12:51:00,
2013-02-25 06:56:00,19.2,17.8,30.13,West,272,0.0,0.0,94,0.00,,,0.00,WeatherCatV1.10B1784,2013-02-25 12:56:00,
2013-02-25 07:01:00,19.4,18.0,30.13,West,272,0.0,0.0,94,0.00,,,0.00,WeatherCatV1.10B1784,2013-02-25 13:01:00,
2013-02-25 07:06:00,19.6,18.4,30.14,West,272,0.0,0.0,95,0.00,,,0.00,WeatherCatV1.10B1784,2013-02-25 13:06:00,
2013-02-25 07:11:00,19.9,18.7,30.14,West,272,1.0,1.0,95,0.00,,,0.00,WeatherCatV1.10B1784,2013-02-25 13:11:00,
2013-02-25 07:16:00,20.4,19.2,30.14,West,272,0.0,1.0,95,0.00,,,0.00,WeatherCatV1.10B1784,2013-02-25 13:16:00,
2013-02-25 07:21:00,20.7,19.5,30.13,West,272,0.0,2.0,95,0.00,,,0.00,WeatherCatV1.10B1784,2013-02-25 13:21:00,
2013-02-25 07:26:00,20.7,19.3,30.13,West,272,0.0,0.0,94,0.00,,,0.00,WeatherCatV1.10B1784,2013-02-25 13:26:00,
2013-02-25 07:31:00,20.6,19.2,30.14,West,271,0.0,0.0,94,0.00,,,0.00,WeatherCatV1.10B1784,2013-02-25 13:31:00,
2013-02-25 07:36:00,20.5,18.8,30.13,West,271,0.0,0.0,93,0.00,,,0.00,WeatherCatV1.10B1784,2013-02-25 13:36:00,
2013-02-25 07:41:00,20.3,18.6,30.14,West,272,0.0,0.0,93,0.00,,,0.00,WeatherCatV1.10B1784,2013-02-25 13:41:00,
2013-02-25 07:46:00,20.1,18.4,30.14,West,272,0.0,0.0,93,0.00,,,0.00,WeatherCatV1.10B1784,2013-02-25 13:46:00,
2013-02-25 07:51:00,20.0,18.3,30.14,West,272,0.0,0.0,93,0.00,,,0.00,WeatherCatV1.10B1784,2013-02-25 13:51:00,
2013-02-25 07:56:00,19.8,18.1,30.14,West,272,0.0,1.0,93,0.00,,,0.00,WeatherCatV1.10B1784,2013-02-25 13:56:00,
2013-02-25 08:01:00,19.7,17.8,30.14,West,272,0.0,0.0,92,0.00,,,0.00,WeatherCatV1.10B1784,2013-02-25 14:01:00,
2013-02-25 08:06:00,19.6,17.9,30.13,West,271,0.0,1.0,93,0.00,,,0.00,WeatherCatV1.10B1784,2013-02-25 14:06:00,
2013-02-25 08:11:00,19.5,17.8,30.14,West,272,0.0,1.0,93,0.00,,,0.00,WeatherCatV1.10B1784,2013-02-25 14:11:00,
2013-02-25 08:16:00,19.5,17.8,30.14,West,271,0.0,0.0,93,0.00,,,0.00,WeatherCatV1.10B1784,2013-02-25 14:16:00,
2013-02-25 08:21:00,19.5,17.8,30.14,West,272,0.0,1.0,93,0.00,,,0.00,WeatherCatV1.10B1784,2013-02-25 14:21:00,
2013-02-25 08:26:00,19.3,17.6,30.14,West,272,0.0,1.0,93,0.00,,,0.00,WeatherCatV1.10B1784,2013-02-25 14:26:00,
2013-02-25 08:31:00,19.2,17.5,30.14,West,272,0.0,0.0,93,0.00,,,0.00,WeatherCatV1.10B1784,2013-02-25 14:31:00,
2013-02-25 08:36:00,19.3,17.6,30.13,West,272,0.0,1.0,93,0.00,,,0.00,WeatherCatV1.10B1784,2013-02-25 14:36:00,
2013-02-25 08:41:00,19.4,17.7,30.13,West,272,0.0,1.0,93,0.00,,,0.00,WeatherCatV1.10B1784,2013-02-25 14:41:00,
2013-02-25 08:46:00,19.5,17.8,30.13,West,272,0.0,1.0,93,0.00,,,0.00,WeatherCatV1.10B1784,2013-02-25 14:46:00,
2013-02-25 08:51:00,19.4,17.7,30.13,West,272,1.0,2.0,93,0.00,,,0.00,WeatherCatV1.10B1784,2013-02-25 14:51:00,
2013-02-25 08:56:00,19.3,17.6,30.13,West,272,0.0,1.0,93,0.00,,,0.00,WeatherCatV1.10B1784,2013-02-25 14:56:00,
2013-02-25 09:01:00,19.3,17.6,30.13,West,272,1.0,2.0,93,0.00,,,0.00,WeatherCatV1.10B1784,2013-02-25 15:01:00,
2013-02-25 09:06:00,19.4,17.7,30.13,West,272,0.0,2.0,93,0.00,,,0.00,WeatherCatV1.10B1784,2013-02-25 15:06:00,
2013-02-25 09:11:00,19.7,18.0,30.13,West,272,1.0,1.0,93,0.00,,,0.00,WeatherCatV1.10B1784,2013-02-25 15:11:00,
2013-02-25 09:16:00,20.0,18.3,30.13,West,272,1.0,2.0,93,0.00,,,0.00,WeatherCatV1.10B1784,2013-02-25 15:16:00,
2013-02-25 09:21:00,20.3,18.6,30.13,West,272,1.0,1.0,93,0.00,,,0.00,WeatherCatV1.10B1784,2013-02-25 15:21:00,
2013-02-25 09:26:00,20.3,18.6,30.13,West,275,2.0,5.0,93,0.00,,,0.00,WeatherCatV1.10B1784,2013-02-25 15:26:00,
2013-02-25 09:31:00,20.5,18.8,30.14,West,275,1.0,3.0,93,0.00,,,0.00,WeatherCatV1.10B1784,2013-02-25 15:31:00,
2013-02-25 09:36:00,20.9,19.2,30.14,West,279,0.0,0.0,93,0.00,,,0.00,WeatherCatV1.10B1784,2013-02-25 15:36:00,
2013-02-25 09:41:00,21.4,19.9,30.15,West,279,1.0,1.0,94,0.00,,,0.00,WeatherCatV1.10B1784,2013-02-25 15:41:00,
2013-02-25 09:46:00,21.7,20.0,30.14,West,279,0.0,2.0,93,0.00,,,0.00,WeatherCatV1.10B1784,2013-02-25 15:46:00,
2013-02-25 09:51:00,22.0,20.3,30.15,West,279,0.0,1.0,93,0.00,,,0.00,WeatherCatV1.10B1784,2013-02-25 15:51:00,
2013-02-25 09:56:00,22.6,20.9,30.14,West,279,1.0,1.0,93,0.00,,,0.00,WeatherCatV1.10B1784,2013-02-25 15:56:00,
2013-02-25 10:01:00,22.9,20.9,30.14,West,279,0.0,3.0,92,0.00,,,0.00,WeatherCatV1.10B1784,2013-02-25 16:01:00,
2013-02-25 10:06:00,23.5,21.8,30.14,West,279,0.0,1.0,93,0.00,,,0.00,WeatherCatV1.10B1784,2013-02-25 16:06:00,
2013-02-25 10:11:00,24.3,22.3,30.14,West,280,2.0,3.0,92,0.00,,,0.00,WeatherCatV1.10B1784,2013-02-25 16:11:00,
2013-02-25 10:16:00,24.5,21.7,30.14,WNW,286,1.0,2.0,89,0.00,,,0.00,WeatherCatV1.10B1784,2013-02-25 16:16:00,
2013-02-25 10:21:00,24.8,22.0,30.14,WNW,293,0.0,1.0,89,0.00,,,0.00,WeatherCatV1.10B1784,2013-02-25 16:21:00,
2013-02-25 10:26:00,24.9,21.9,30.15,NW,312,0.0,4.0,88,0.00,,,0.00,WeatherCatV1.10B1784,2013-02-25 16:26:00,
2013-02-25 10:31:00,25.4,22.4,30.14,NW,312,1.0,3.0,88,0.00,,,0.00,WeatherCatV1.10B1784,2013-02-25 16:31:00,
2013-02-25 10:36:00,25.7,22.4,30.14,NW,312,1.0,2.0,87,0.00,,,0.00,WeatherCatV1.10B1784,2013-02-25 16:36:00,
2013-02-25 10:41:00,26.2,22.6,30.14,NW,313,3.0,3.0,86,0.00,,,0.00,WeatherCatV1.10B1784,2013-02-25 16:41:00,
2013-02-25 10:46:00,26.9,23.0,30.13,NW,313,0.0,3.0,85,0.00,,,0.00,WeatherCatV1.10B1784,2013-02-25 16:46:00,
2013-02-25 10:51:00,27.4,22.9,30.13,NW,316,3.0,4.0,83,0.00,,,0.00,WeatherCatV1.10B1784,2013-02-25 16:51:00,
2013-02-25 10:56:00,27.6,22.8,30.13,NW,316,2.0,3.0,82,0.00,,,0.00,WeatherCatV1.10B1784,2013-02-25 16:56:00,
2013-02-25 11:01:00,27.4,22.6,30.13,NW,316,0.0,1.0,82,0.00,,,0.00,WeatherCatV1.10B1784,2013-02-25 17:01:00,
2013-02-25 11:06:00,27.1,22.4,30.13,West,276,3.0,4.0,82,0.00,,,0.00,WeatherCatV1.10B1784,2013-02-25 17:06:00,
2013-02-25 11:11:00,26.7,22.2,30.13,WNW,303,1.0,3.0,83,0.00,,,0.00,WeatherCatV1.10B1784,2013-02-25 17:11:00,
2013-02-25 11:16:00,27.1,22.9,30.13,NW,306,2.0,2.0,84,0.00,,,0.00,WeatherCatV1.10B1784,2013-02-25 17:16:00,
2013-02-25 11:21:00,27.6,23.1,30.12,WNW,296,2.0,4.0,83,0.00,,,0.00,WeatherCatV1.10B1784,2013-02-25 17:21:00,
2013-02-25 11:26:00,27.5,23.0,30.12,NW,311,2.0,3.0,83,0.00,,,0.00,WeatherCatV1.10B1784,2013-02-25 17:26:00,
2013-02-25 11:31:00,27.5,23.3,30.12,NW,305,3.0,3.0,84,0.00,,,0.00,WeatherCatV1.10B1784,2013-02-25 17:31:00,
2013-02-25 11:36:00,28.1,23.9,30.12,WNW,303,2.0,5.0,84,0.00,,,0.00,WeatherCatV1.10B1784,2013-02-25 17:36:00,
2013-02-25 11:41:00,28.5,24.3,30.12,NW,318,3.0,4.0,84,0.00,,,0.00,WeatherCatV1.10B1784,2013-02-25 17:41:00,
2013-02-25 11:46:00,29.1,24.6,30.12,North,5,1.0,6.0,83,0.00,,,0.00,WeatherCatV1.10B1784,2013-02-25 17:46:00,
2013-02-25 11:51:00,29.0,24.2,30.12,North,0,2.0,5.0,82,0.00,,,0.00,WeatherCatV1.10B1784,2013-02-25 17:51:00,
2013-02-25 11:56:00,28.7,24.2,30.13,NW,304,2.0,2.0,83,0.00,,,0.00,WeatherCatV1.10B1784,2013-02-25 17:56:00,
2013-02-25 12:01:00,28.4,23.6,30.13,West,276,2.0,4.0,82,0.00,,,0.00,WeatherCatV1.10B1784,2013-02-25 18:01:00,
2013-02-25 12:06:00,28.1,23.9,30.13,NW,316,0.0,2.0,84,0.00,,,0.00,WeatherCatV1.10B1784,2013-02-25 18:06:00,
2013-02-25 12:11:00,28.0,23.8,30.13,WNW,285,5.0,6.0,84,0.00,,,0.00,WeatherCatV1.10B1784,2013-02-25 18:11:00,
2013-02-25 12:16:00,27.8,23.6,30.13,WNW,291,2.0,4.0,84,0.00,,,0.00,WeatherCatV1.10B1784,2013-02-25 18:16:00,
2013-02-25 12:21:00,27.5,23.6,30.13,NW,322,4.0,4.0,85,0.00,,,0.00,WeatherCatV1.10B1784,2013-02-25 18:21:00,
2013-02-25 12:26:00,27.4,23.5,30.12,NNW,328,2.0,3.0,85,0.00,,,0.00,WeatherCatV1.10B1784,2013-02-25 18:26:00,
2013-02-25 12:31:00,27.4,23.8,30.12,West,279,4.0,4.0,86,0.00,,,0.00,WeatherCatV1.10B1784,2013-02-25 18:31:00,
2013-02-25 12:36:00,27.3,23.7,30.12,NNE,22,0.0,5.0,86,0.00,,,0.00,WeatherCatV1.10B1784,2013-02-25 18:36:00,
2013-02-25 12:41:00,27.0,23.4,30.12,WNW,297,2.0,4.0,86,0.00,,,0.00,WeatherCatV1.10B1784,2013-02-25 18:41:00,
2013-02-25 12:46:00,26.9,23.3,30.12,WNW,299,1.0,3.0,86,0.00,,,0.00,WeatherCatV1.10B1784,2013-02-25 18:46:00,
2013-02-25 12:51:00,27.0,23.4,30.11,WNW,301,1.0,2.0,86,0.00,,,0.00,WeatherCatV1.10B1784,2013-02-25 18:51:00,
2013-02-25 12:56:00,27.1,23.5,30.11,WNW,301,0.0,3.0,86,0.00,,,0.00,WeatherCatV1.10B1784,2013-02-25 18:56:00,
2013-02-25 13:01:00,27.3,23.7,30.11,NNW,333,2.0,2.0,86,0.00,,,0.00,WeatherCatV1.10B1784,2013-02-25 19:01:00,
2013-02-25 13:06:00,27.2,23.6,30.10,WNW,299,1.0,4.0,86,0.00,,,0.00,WeatherCatV1.10B1784,2013-02-25 19:06:00,
2013-02-25 13:11:00,26.9,23.3,30.10,WNW,294,2.0,3.0,86,0.00,,,0.00,WeatherCatV1.10B1784,2013-02-25 19:11:00,
2013-02-25 13:16:00,27.1,23.5,30.10,NW,307,2.0,5.0,86,0.00,,,0.00,WeatherCatV1.10B1784,2013-02-25 19:16:00,
2013-02-25 13:21:00,27.5,23.6,30.10,NNW,335,2.0,4.0,85,0.00,,,0.00,WeatherCatV1.10B1784,2013-02-25 19:21:00,
2013-02-25 13:26:00,27.8,23.9,30.10,NW,304,2.0,5.0,85,0.00,,,0.00,WeatherCatV1.10B1784,2013-02-25 19:26:00,
2013-02-25 13:31:00,27.6,23.7,30.09,NW,314,0.0,2.0,85,0.00,,,0.00,WeatherCatV1.10B1784,2013-02-25 19:31:00,
2013-02-25 13:36:00,28.1,24.2,30.08,NW,317,0.0,2.0,85,0.00,,,0.00,WeatherCatV1.10B1784,2013-02-25 19:36:00,
2013-02-25 13:41:00,28.3,23.8,30.08,NW,306,2.0,3.0,83,0.00,,,0.00,WeatherCatV1.10B1784,2013-02-25 19:41:00,
2013-02-25 13:46:00,28.4,24.5,30.08,NNW,327,1.0,3.0,85,0.00,,,0.00,WeatherCatV1.10B1784,2013-02-25 19:46:00,
2013-02-25 13:51:00,29.0,24.5,30.08,NNW,343,2.0,4.0,83,0.00,,,0.00,WeatherCatV1.10B1784,2013-02-25 19:51:00,
2013-02-25 13:56:00,29.4,24.6,30.08,NNE,22,0.0,2.0,82,0.00,,,0.00,WeatherCatV1.10B1784,2013-02-25 19:56:00,
2013-02-25 14:01:00,29.7,24.6,30.08,NNE,27,0.0,2.0,81,0.00,,,0.00,WeatherCatV1.10B1784,2013-02-25 20:01:00,
2013-02-25 14:06:00,29.7,24.6,30.08,NW,319,0.0,0.0,81,0.00,,,0.00,WeatherCatV1.10B1784,2013-02-25 20:06:00,
2013-02-25 14:11:00,30.0,24.9,30.08,NW,326,1.0,3.0,81,0.00,,,0.00,WeatherCatV1.10B1784,2013-02-25 20:11:00,
2013-02-25 14:16:00,30.4,25.0,30.08,ENE,76,0.0,4.0,80,0.00,,,0.00,WeatherCatV1.10B1784,2013-02-25 20:16:00,
2013-02-25 14:21:00,30.6,25.2,30.08,East,79,0.0,3.0,80,0.00,,,0.00,WeatherCatV1.10B1784,2013-02-25 20:21:00,
2013-02-25 14:26:00,30.3,24.6,30.07,NW,324,0.0,3.0,79,0.00,,,0.00,WeatherCatV1.10B1784,2013-02-25 20:26:00,
2013-02-25 14:31:00,30.5,25.1,30.07,NNW,345,0.0,3.0,80,0.00,,,0.00,WeatherCatV1.10B1784,2013-02-25 20:31:00,
2013-02-25 14:36:00,30.8,25.1,30.07,NE,36,1.0,3.0,79,0.00,,,0.00,WeatherCatV1.10B1784,2013-02-25 20:36:00,
2013-02-25 14:41:00,31.0,25.3,30.08,ENE,70,1.0,1.0,79,0.00,,,0.00,WeatherCatV1.10B1784,2013-02-25 20:41:00,
2013-02-25 14:46:00,30.9,24.9,30.08,ENE,63,0.0,2.0,78,0.00,,,0.00,WeatherCatV1.10B1784,2013-02-25 20:46:00,
2013-02-25 14:51:00,30.8,24.8,30.08,ENE,59,0.0,2.0,78,0.00,,,0.00,WeatherCatV1.10B1784,2013-02-25 20:51:00,
2013-02-25 14:56:00,30.7,24.7,30.08,NNW,342,0.0,4.0,78,0.00,,,0.00,WeatherCatV1.10B1784,2013-02-25 20:56:00,
2013-02-25 15:01:00,30.5,24.5,30.07,NW,311,1.0,4.0,78,0.00,,,0.00,WeatherCatV1.10B1784,2013-02-25 21:01:00,
2013-02-25 15:06:00,30.3,24.6,30.06,NNW,331,0.0,1.0,79,0.00,,,0.00,WeatherCatV1.10B1784,2013-02-25 21:06:00,
2013-02-25 15:11:00,30.4,24.7,30.07,ENE,69,1.0,5.0,79,0.00,,,0.00,WeatherCatV1.10B1784,2013-02-25 21:11:00,
2013-02-25 15:16:00,30.1,24.1,30.08,NNW,332,1.0,6.0,78,0.00,,,0.00,WeatherCatV1.10B1784,2013-02-25 21:16:00,
2013-02-25 15:21:00,29.6,23.9,30.08,NW,307,0.0,4.0,79,0.00,,,0.00,WeatherCatV1.10B1784,2013-02-25 21:21:00,
2013-02-25 15:26:00,29.1,24.0,30.08,NW,320,1.0,4.0,81,0.00,,,0.00,WeatherCatV1.10B1784,2013-02-25 21:26:00,
2013-02-25 15:31:00,28.8,24.0,30.08,North,353,0.0,5.0,82,0.00,,,0.00,WeatherCatV1.10B1784,2013-02-25 21:31:00,
2013-02-25 15:36:00,29.0,24.5,30.08,East,85,0.0,2.0,83,0.00,,,0.00,WeatherCatV1.10B1784,2013-02-25 21:36:00,
2013-02-25 15:41:00,28.9,24.4,30.08,NE,34,1.0,3.0,83,0.00,,,0.00,WeatherCatV1.10B1784,2013-02-25 21:41:00,
2013-02-25 15:46:00,28.8,24.3,30.07,East,81,0.0,5.0,83,0.00,,,0.00,WeatherCatV1.10B1784,2013-02-25 21:46:00,
2013-02-25 15:51:00,28.7,24.2,30.08,East,84,0.0,2.0,83,0.00,,,0.00,WeatherCatV1.10B1784,2013-02-25 21:51:00,
2013-02-25 15:56:00,28.7,24.2,30.08,East,87,0.0,3.0,83,0.00,,,0.00,WeatherCatV1.10B1784,2013-02-25 21:56:00,
2013-02-25 16:01:00,28.7,24.2,30.08,East,85,0.0,1.0,83,0.00,,,0.00,WeatherCatV1.10B1784,2013-02-25 22:01:00,
2013-02-25 16:06:00,28.5,24.3,30.07,NW,321,0.0,4.0,84,0.00,,,0.00,WeatherCatV1.10B1784,2013-02-25 22:06:00,
2013-02-25 16:11:00,28.5,24.3,30.07,NNW,336,1.0,2.0,84,0.00,,,0.00,WeatherCatV1.10B1784,2013-02-25 22:11:00,
2013-02-25 16:16:00,28.3,24.1,30.07,NNW,341,0.0,1.0,84,0.00,,,0.00,WeatherCatV1.10B1784,2013-02-25 22:16:00,
2013-02-25 16:21:00,28.0,24.1,30.08,ENE,60,2.0,2.0,85,0.00,,,0.00,WeatherCatV1.10B1784,2013-02-25 22:21:00,
2013-02-25 16:26:00,27.9,24.0,30.08,ENE,71,4.0,5.0,85,0.00,,,0.00,WeatherCatV1.10B1784,2013-02-25 22:26:00,
2013-02-25 16:31:00,27.7,24.1,30.09,East,97,0.0,1.0,86,0.00,,,0.00,WeatherCatV1.10B1784,2013-02-25 22:31:00,
2013-02-25 16:36:00,27.7,24.1,30.08,East,89,0.0,3.0,86,0.00,,,0.00,WeatherCatV1.10B1784,2013-02-25 22:36:00,
2013-02-25 16:41:00,27.5,23.9,30.08,East,85,1.0,3.0,86,0.00,,,0.00,WeatherCatV1.10B1784,2013-02-25 22:41:00,
2013-02-25 16:46:00,27.4,24.0,30.07,NNW,330,0.0,5.0,87,0.00,,,0.00,WeatherCatV1.10B1784,2013-02-25 22:46:00,
2013-02-25 16:51:00,27.4,24.0,30.06,NE,53,0.0,3.0,87,0.00,,,0.00,WeatherCatV1.10B1784,2013-02-25 22:51:00,
2013-02-25 16:56:00,27.4,24.0,30.07,NE,52,0.0,1.0,87,0.00,,,0.00,WeatherCatV1.10B1784,2013-02-25 22:56:00,
2013-02-25 17:01:00,27.4,24.0,30.07,NE,49,0.0,1.0,87,0.00,,,0.00,WeatherCatV1.10B1784,2013-02-25 23:01:00,
2013-02-25 17:06:00,27.4,24.0,30.07,ENE,77,2.0,2.0,87,0.00,,,0.00,WeatherCatV1.10B1784,2013-02-25 23:06:00,
2013-02-25 17:11:00,27.3,24.0,30.07,ENE,75,0.0,1.0,87,0.00,,,0.00,WeatherCatV1.10B1784,2013-02-25 23:11:00,
2013-02-25 17:16:00,27.2,23.9,30.07,ENE,75,0.0,1.0,87,0.00,,,0.00,WeatherCatV1.10B1784,2013-02-25 23:16:00,
2013-02-25 17:21:00,27.1,23.8,30.06,NE,56,0.0,5.0,87,0.00,,,0.00,WeatherCatV1.10B1784,2013-02-25 23:21:00,
2013-02-25 17:26:00,27.1,23.8,30.06,NE,35,1.0,4.0,87,0.00,,,0.00,WeatherCatV1.10B1784,2013-02-25 23:26:00,
2013-02-25 17:31:00,26.9,23.6,30.06,ENE,65,0.0,3.0,87,0.00,,,0.00,WeatherCatV1.10B1784,2013-02-25 23:31:00,
2013-02-25 17:36:00,26.8,23.7,30.06,ENE,64,0.0,1.0,88,0.00,,,0.00,WeatherCatV1.10B1784,2013-02-25 23:36:00,
2013-02-25 17:41:00,26.5,23.4,30.07,ENE,66,2.0,2.0,88,0.00,,,0.00,WeatherCatV1.10B1784,2013-02-25 23:41:00,
2013-02-25 17:46:00,26.3,23.2,30.06,East,87,0.0,2.0,88,0.00,,,0.00,WeatherCatV1.10B1784,2013-02-25 23:46:00,
2013-02-25 17:51:00,26.2,23.1,30.07,East,87,0.0,2.0,88,0.00,,,0.00,WeatherCatV1.10B1784,2013-02-25 23:51:00,
2013-02-25 17:56:00,26.1,23.0,30.07,ENE,76,2.0,3.0,88,0.00,,,0.00,WeatherCatV1.10B1784,2013-02-25 23:56:00,
2013-02-25 18:01:00,25.9,23.1,30.07,East,80,0.0,3.0,89,0.00,,,0.00,WeatherCatV1.10B1784,2013-02-26 00:01:00,
2013-02-25 18:06:00,25.8,23.0,30.07,ENE,75,0.0,2.0,89,0.00,,,0.00,WeatherCatV1.10B1784,2013-02-26 00:06:00,
2013-02-25 18:11:00,25.7,22.9,30.08,ENE,76,2.0,5.0,89,0.00,,,0.00,WeatherCatV1.10B1784,2013-02-26 00:11:00,
2013-02-25 18:16:00,25.7,22.9,30.07,East,89,0.0,2.0,89,0.00,,,0.00,WeatherCatV1.10B1784,2013-02-26 00:16:00,
2013-02-25 18:21:00,25.5,22.7,30.08,East,88,2.0,5.0,89,0.00,,,0.00,WeatherCatV1.10B1784,2013-02-26 00:21:00,
2013-02-25 18:26:00,25.4,22.6,30.07,East,87,2.0,5.0,89,0.00,,,0.00,WeatherCatV1.10B1784,2013-02-26 00:26:00,
2013-02-25 18:31:00,25.3,22.8,30.07,ENE,72,2.0,2.0,90,0.00,,,0.00,WeatherCatV1.10B1784,2013-02-26 00:31:00,
2013-02-25 18:36:00,25.3,22.8,30.07,ENE,71,3.0,3.0,90,0.00,,,0.00,WeatherCatV1.10B1784,2013-02-26 00:36:00,
2013-02-25 18:41:00,25.2,22.7,30.07,ENE,70,2.0,3.0,90,0.00,,,0.00,WeatherCatV1.10B1784,2013-02-26 00:41:00,
2013-02-25 18:46:00,25.1,22.6,30.08,ENE,70,0.0,1.0,90,0.00,,,0.00,WeatherCatV1.10B1784,2013-02-26 00:46:00,
2013-02-25 18:51:00,25.0,22.5,30.07,ENE,68,0.0,1.0,90,0.00,,,0.00,WeatherCatV1.10B1784,2013-02-26 00:51:00,
2013-02-25 18:56:00,24.9,22.4,30.07,ENE,64,2.0,2.0,90,0.00,,,0.00,WeatherCatV1.10B1784,2013-02-26 00:56:00,
2013-02-25 19:01:00,24.8,22.6,30.08,East,89,0.0,2.0,91,0.00,,,0.00,WeatherCatV1.10B1784,2013-02-26 01:01:00,
2013-02-25 19:06:00,24.8,22.6,30.07,East,83,0.0,1.0,91,0.00,,,0.00,WeatherCatV1.10B1784,2013-02-26 01:06:00,
2013-02-25 19:11:00,24.8,22.6,30.08,ESE,110,2.0,3.0,91,0.00,,,0.00,WeatherCatV1.10B1784,2013-02-26 01:11:00,
2013-02-25 19:16:00,24.7,22.5,30.08,East,88,1.0,5.0,91,0.00,,,0.00,WeatherCatV1.10B1784,2013-02-26 01:16:00,
2013-02-25 19:21:00,24.6,22.4,30.08,East,101,2.0,3.0,91,0.00,,,0.00,WeatherCatV1.10B1784,2013-02-26 01:21:00,
2013-02-25 19:26:00,24.5,22.5,30.08,SE,126,2.0,4.0,92,0.00,,,0.00,WeatherCatV1.10B1784,2013-02-26 01:26:00,
2013-02-25 19:31:00,24.5,22.5,30.08,SE,126,0.0,0.0,92,0.00,,,0.00,WeatherCatV1.10B1784,2013-02-26 01:31:00,
2013-02-25 19:36:00,24.5,22.5,30.07,East,84,1.0,2.0,92,0.00,,,0.00,WeatherCatV1.10B1784,2013-02-26 01:36:00,
2013-02-25 19:41:00,24.6,22.6,30.08,SE,127,0.0,2.0,92,0.00,,,0.00,WeatherCatV1.10B1784,2013-02-26 01:41:00,
2013-02-25 19:46:00,24.6,22.6,30.08,SE,127,0.0,1.0,92,0.00,,,0.00,WeatherCatV1.10B1784,2013-02-26 01:46:00,
2013-02-25 19:51:00,24.7,23.0,30.07,SE,126,1.0,2.0,93,0.00,,,0.00,WeatherCatV1.10B1784,2013-02-26 01:51:00,
2013-02-25 19:56:00,24.8,23.1,30.07,East,101,0.0,1.0,93,0.00,,,0.00,WeatherCatV1.10B1784,2013-02-26 01:56:00,
2013-02-25 20:01:00,24.8,23.1,30.07,East,101,0.0,0.0,93,0.00,,,0.00,WeatherCatV1.10B1784,2013-02-26 02:01:00,
2013-02-25 20:06:00,24.9,23.2,30.08,SSE,147,3.0,3.0,93,0.00,,,0.00,WeatherCatV1.10B1784,2013-02-26 02:06:00,
2013-02-25 20:11:00,24.8,23.1,30.06,SE,145,0.0,3.0,93,0.00,,,0.00,WeatherCatV1.10B1784,2013-02-26 02:11:00,
2013-02-25 20:16:00,24.9,23.2,30.06,ESE,122,0.0,4.0,93,0.00,,,0.00,WeatherCatV1.10B1784,2013-02-26 02:16:00,
2013-02-25 20:21:00,24.9,23.2,30.07,ESE,123,0.0,2.0,93,0.00,,,0.00,WeatherCatV1.10B1784,2013-02-26 02:21:00,
2013-02-25 20:26:00,24.9,23.2,30.05,ESE,116,1.0,2.0,93,0.00,,,0.00,WeatherCatV1.10B1784,2013-02-26 02:26:00,
2013-02-25 20:31:00,24.9,23.2,30.06,ESE,116,0.0,2.0,93,0.00,,,0.00,WeatherCatV1.10B1784,2013-02-26 02:31:00,
2013-02-25 20:36:00,25.0,23.3,30.05,ESE,116,0.0,1.0,93,0.00,,,0.00,WeatherCatV1.10B1784,2013-02-26 02:36:00,
2013-02-25 20:41:00,25.1,23.4,30.05,ESE,116,0.0,1.0,93,0.00,,,0.00,WeatherCatV1.10B1784,2013-02-26 02:41:00,
2013-02-25 20:46:00,25.1,23.4,30.05,ESE,116,1.0,2.0,93,0.00,,,0.00,WeatherCatV1.10B1784,2013-02-26 02:46:00,
2013-02-25 20:51:00,25.2,23.5,30.04,ESE,116,0.0,0.0,93,0.00,,,0.00,WeatherCatV1.10B1784,2013-02-26 02:51:00,
2013-02-25 20:56:00,25.2,23.5,30.05,ESE,114,0.0,2.0,93,0.00,,,0.00,WeatherCatV1.10B1784,2013-02-26 02:56:00,
2013-02-25 21:01:00,25.2,23.5,30.04,ESE,114,1.0,1.0,93,0.00,,,0.00,WeatherCatV1.10B1784,2013-02-26 03:01:00,
2013-02-25 21:06:00,25.2,23.5,30.04,East,81,0.0,2.0,93,0.00,,,0.00,WeatherCatV1.10B1784,2013-02-26 03:06:00,
2013-02-25 21:11:00,25.2,23.5,30.04,East,81,0.0,2.0,93,0.00,,,0.00,WeatherCatV1.10B1784,2013-02-26 03:11:00,
2013-02-25 21:16:00,25.3,23.6,30.04,East,81,0.0,1.0,93,0.00,,,0.00,WeatherCatV1.10B1784,2013-02-26 03:16:00,
2013-02-25 21:21:00,25.3,23.6,30.04,East,81,0.0,1.0,93,0.00,,,0.00,WeatherCatV1.10B1784,2013-02-26 03:21:00,
2013-02-25 21:26:00,25.4,23.7,30.03,East,81,0.0,1.0,93,0.00,,,0.00,WeatherCatV1.10B1784,2013-02-26 03:26:00,
2013-02-25 21:31:00,25.4,23.9,30.03,East,81,1.0,2.0,94,0.00,,,0.00,WeatherCatV1.10B1784,2013-02-26 03:31:00,
2013-02-25 21:36:00,25.5,24.0,30.03,East,81,1.0,1.0,94,0.00,,,0.00,WeatherCatV1.10B1784,2013-02-26 03:36:00,
2013-02-25 21:41:00,25.5,24.0,30.03,East,81,0.0,0.0,94,0.00,,,0.00,WeatherCatV1.10B1784,2013-02-26 03:41:00,
2013-02-25 21:46:00,25.5,24.0,30.03,East,81,0.0,2.0,94,0.00,,,0.00,WeatherCatV1.10B1784,2013-02-26 03:46:00,
2013-02-25 21:51:00,25.5,24.0,30.03,East,81,0.0,1.0,94,0.00,,,0.00,WeatherCatV1.10B1784,2013-02-26 03:51:00,
2013-02-25 21:56:00,25.5,24.0,30.02,East,81,1.0,2.0,94,0.00,,,0.00,WeatherCatV1.10B1784,2013-02-26 03:56:00,
2013-02-25 22:01:00,25.5,24.0,30.03,East,81,0.0,1.0,94,0.00,,,0.00,WeatherCatV1.10B1784,2013-02-26 04:01:00,
2013-02-25 22:06:00,25.5,24.0,30.02,East,81,0.0,2.0,94,0.00,,,0.00,WeatherCatV1.10B1784,2013-02-26 04:06:00,
2013-02-25 22:11:00,25.5,24.0,30.03,East,81,1.0,1.0,94,0.00,,,0.00,WeatherCatV1.10B1784,2013-02-26 04:11:00,
2013-02-25 22:16:00,25.4,23.9,30.02,NNW,338,0.0,0.0,94,0.00,,,0.00,WeatherCatV1.10B1784,2013-02-26 04:16:00,
2013-02-25 22:21:00,25.4,23.9,30.02,NNW,338,0.0,0.0,94,0.00,,,0.00,WeatherCatV1.10B1784,2013-02-26 04:21:00,
2013-02-25 22:26:00,25.3,23.8,30.02,NNW,338,0.0,2.0,94,0.00,,,0.00,WeatherCatV1.10B1784,2013-02-26 04:26:00,
2013-02-25 22:31:00,25.2,23.7,30.02,ESE,106,2.0,3.0,94,0.00,,,0.00,WeatherCatV1.10B1784,2013-02-26 04:31:00,
2013-02-25 22:36:00,25.2,23.7,30.02,ESE,105,0.0,1.0,94,0.00,,,0.00,WeatherCatV1.10B1784,2013-02-26 04:36:00,
2013-02-25 22:41:00,25.2,23.7,30.02,ESE,105,2.0,2.0,94,0.00,,,0.00,WeatherCatV1.10B1784,2013-02-26 04:41:00,
2013-02-25 22:46:00,25.1,23.6,30.02,SE,124,0.0,1.0,94,0.00,,,0.00,WeatherCatV1.10B1784,2013-02-26 04:46:00,
2013-02-25 22:51:00,25.1,23.6,30.02,SE,124,1.0,1.0,94,0.00,,,0.00,WeatherCatV1.10B1784,2013-02-26 04:51:00,
2013-02-25 22:56:00,25.1,23.6,30.02,SE,124,0.0,0.0,94,0.00,,,0.00,WeatherCatV1.10B1784,2013-02-26 04:56:00,
2013-02-25 23:00:00,25.1,23.6,30.02,SE,124,0.0,2.0,94,0.00,,,0.00,WeatherCatV1.10B1784,2013-02-26 05:00:00,
2013-02-25 23:05:00,25.1,23.6,30.02,ESE,122,1.0,2.0,94,0.00,,,0.00,WeatherCatV1.10B1784,2013-02-26 05:05:00,
2013-02-25 23:10:00,25.1,23.6,30.02,ENE,78,0.0,5.0,94,0.00,,,0.00,WeatherCatV1.10B1784,2013-02-26 05:10:00,
2013-02-25 23:15:00,25.1,23.6,30.02,ENE,78,0.0,0.0,94,0.00,,,0.00,WeatherCatV1.10B1784,2013-02-26 05:15:00,
2013-02-25 23:20:00,25.1,23.6,30.02,ENE,77,0.0,1.0,94,0.00,,,0.00,WeatherCatV1.10B1784,2013-02-26 05:20:00,
2013-02-25 23:25:00,25.1,23.6,30.02,ENE,77,0.0,0.0,94,0.00,,,0.00,WeatherCatV1.10B1784,2013-02-26 05:25:00,
2013-02-25 23:30:00,25.2,23.7,30.02,ENE,77,0.0,0.0,94,0.00,,,0.00,WeatherCatV1.10B1784,2013-02-26 05:30:00,
2013-02-25 23:35:00,25.2,23.7,30.02,ENE,77,0.0,2.0,94,0.00,,,0.00,WeatherCatV1.10B1784,2013-02-26 05:35:00,
2013-02-25 23:40:00,25.2,24.0,30.02,ENE,76,3.0,3.0,95,0.00,,,0.00,WeatherCatV1.10B1784,2013-02-26 05:40:00,
2013-02-25 23:45:00,25.2,24.0,30.02,East,83,0.0,2.0,95,0.00,,,0.00,WeatherCatV1.10B1784,2013-02-26 05:45:00,
2013-02-25 23:50:00,25.2,24.0,30.02,East,83,0.0,1.0,95,0.00,,,0.00,WeatherCatV1.10B1784,2013-02-26 05:50:00,
2013-02-25 23:55:00,25.3,24.1,30.02,SE,128,0.0,1.0,95,0.00,,,0.00,WeatherCatV1.10B1784,2013-02-26 05:55:00,